Other Surface Observations
Issued by NWS Great Falls, MT

Home | Current Version | Previous Version | Graphics & Text | Print | Product List | Glossary On
Versions: 1 2 3 4 5 6 7 8 9 10 11 12 13 14 15 16 17 18 19 20 21 22 23 24 25 26 27 28 29 30 31 32 33 34 35 36 37 38 39 40 41 42 43 44 45 46 47 48 49 50
000
SXUS55 KTFX 240618
OSOTFX

AREA AWOS OBSERVATIONS
NATIONAL WEATHER SERVICE GREAT FALLS MT
1218 AM MDT Wed Aug 24 2016

METAR K7S0 240555Z AUTO 00000KT 10SM 16/08 A3023
METAR KRPX 240615Z AUTO 29004KT 10SM 14/06 A3010
METAR KS01 240555Z AUTO 30011G17KT 10SM 13/09 A3025



USA.gov is the U.S. government's official web portal to all federal, state and local government web resources and services.